createdAt,value
2018-10-03T00:00:36.498Z,99.9
2018-10-03T00:05:05.409Z,99.9
2018-10-03T00:10:15.873Z,99.9
2018-10-03T00:15:15.256Z,99.9
2018-10-03T00:20:12.842Z,99.9
2018-10-03T00:25:05.544Z,99.9
2018-10-03T00:30:10.547Z,99.9
2018-10-03T00:35:05.777Z,99.9
2018-10-03T00:40:02.606Z,99.9
2018-10-03T00:50:10.751Z,99.9
2018-10-03T01:00:05.196Z,99.9
2018-10-03T01:05:03.031Z,99.9
2018-10-03T01:10:10.470Z,99.9
2018-10-03T01:15:15.869Z,99.9
2018-10-03T01:20:03.261Z,99.9
2018-10-03T01:25:10.182Z,99.9
2018-10-03T01:30:11.132Z,99.9
2018-10-03T01:35:05.364Z,99.9
2018-10-03T01:40:26.094Z,99.9
2018-10-03T01:45:11.054Z,99.9
2018-10-03T01:50:03.348Z,99.9
2018-10-03T01:55:05.235Z,99.9
2018-10-03T02:00:17.803Z,99.9
2018-10-03T02:05:13.007Z,99.9
2018-10-03T02:10:05.415Z,99.9
2018-10-03T02:15:26.057Z,99.9
2018-10-03T02:20:23.748Z,99.9
2018-10-03T02:25:02.848Z,99.9
2018-10-03T02:30:03.220Z,99.9
2018-10-03T02:35:20.327Z,99.9
2018-10-03T02:40:15.818Z,99.9
2018-10-03T02:45:06.051Z,99.9
2018-10-03T02:50:08.477Z,99.9
2018-10-03T02:55:17.937Z,99.9
2018-10-03T03:00:03.319Z,99.9
2018-10-03T03:05:07.752Z,99.9
2018-10-03T03:10:05.274Z,99.9
2018-10-03T03:15:20.721Z,99.9
2018-10-03T03:20:03.167Z,99.9
2018-10-03T03:25:03.534Z,99.9
2018-10-03T03:30:05.428Z,99.9
2018-10-03T03:35:15.885Z,99.9
2018-10-03T03:40:02.719Z,99.9
2018-10-03T03:45:03.047Z,99.9
2018-10-03T03:50:08.462Z,99.9
2018-10-03T03:55:02.731Z,99.9
2018-10-03T04:00:10.822Z,99.9
2018-10-03T04:05:06.102Z,99.9
2018-10-03T04:10:05.527Z,99.9
2018-10-03T04:20:05.214Z,99.9
2018-10-03T04:25:08.190Z,99.9
2018-10-03T04:30:16.193Z,99.9
2018-10-03T04:35:10.520Z,99.9
2018-10-03T04:40:23.659Z,99.9
2018-10-03T04:45:03.076Z,99.9
2018-10-03T04:55:33.917Z,99.9
2018-10-03T05:00:05.855Z,99.9
2018-10-03T05:05:21.245Z,99.9
2018-10-03T05:10:08.130Z,99.9
2018-10-03T05:15:05.938Z,99.9
2018-10-03T05:20:08.357Z,99.9
2018-10-03T05:25:02.599Z,99.9
2018-10-03T05:30:05.538Z,99.9
2018-10-03T05:35:18.478Z,99.9
2018-10-03T05:40:10.852Z,99.9
2018-10-03T05:45:03.526Z,99.9
2018-10-03T05:50:13.162Z,99.9
2018-10-03T05:55:08.450Z,99.9
2018-10-03T06:05:18.156Z,99.9
2018-10-03T06:10:10.531Z,99.9
2018-10-03T06:15:05.963Z,99.9
2018-10-03T06:20:21.190Z,99.9
2018-10-03T06:25:05.336Z,99.9
2018-10-03T06:30:05.517Z,99.9
2018-10-03T06:35:03.241Z,99.9
2018-10-03T06:40:10.666Z,99.9
2018-10-03T06:45:06.077Z,99.9
2018-10-03T06:50:38.784Z,99.9
2018-10-03T06:55:10.726Z,99.9
2018-10-03T07:00:08.135Z,99.9
2018-10-03T07:05:03.411Z,99.9
2018-10-03T07:10:03.225Z,99.9
2018-10-03T07:15:12.704Z,99.9
2018-10-03T07:20:08.345Z,99.9
2018-10-03T07:25:02.846Z,99.9
2018-10-03T07:30:26.265Z,99.9
2018-10-03T07:35:03.565Z,48.7
2018-10-03T07:40:31.225Z,99.9
2018-10-03T07:45:05.115Z,99.9
2018-10-03T07:50:05.993Z,99.9
2018-10-03T07:55:15.497Z,99.9
2018-10-03T08:00:05.625Z,99.9
2018-10-03T08:05:26.179Z,99.9
2018-10-03T08:10:08.306Z,99.9
2018-10-03T08:15:03.288Z,99.9
2018-10-03T08:20:07.805Z,99.9
2018-10-03T08:25:03.066Z,99.9
2018-10-03T08:30:08.549Z,99.9
2018-10-03T08:35:10.503Z,99.9
2018-10-03T08:40:03.354Z,99.9
2018-10-03T08:45:07.816Z,99.9
2018-10-03T08:50:08.368Z,99.6
2018-10-03T08:55:22.857Z,98.8
2018-10-03T09:00:03.474Z,98.8
2018-10-03T09:05:10.359Z,98.9
2018-10-03T09:10:05.693Z,98.5
2018-10-03T09:15:05.986Z,97.4
2018-10-03T09:20:16.067Z,96.5
2018-10-03T09:25:10.269Z,95.4
2018-10-03T09:30:10.518Z,94.2
2018-10-03T09:35:05.751Z,95
2018-10-03T09:40:05.100Z,94.2
2018-10-03T09:45:05.492Z,93.7
2018-10-03T09:50:05.360Z,94.5
2018-10-03T09:55:10.865Z,94.2
2018-10-03T10:00:05.767Z,93.2
2018-10-03T10:05:02.647Z,93.2
2018-10-03T10:10:11.123Z,91.3
2018-10-03T10:15:05.469Z,91.8
2018-10-03T10:20:15.504Z,91.7
2018-10-03T10:25:08.295Z,91.9
2018-10-03T10:30:15.269Z,92.3
2018-10-03T10:35:03.450Z,92.3
2018-10-03T10:40:03.463Z,92.6
2018-10-03T10:45:03.013Z,92.4
2018-10-03T10:50:08.511Z,92.1
2018-10-03T10:55:05.610Z,91.1
2018-10-03T11:00:18.188Z,90.9
2018-10-03T11:05:08.345Z,90.2
2018-10-03T11:10:03.577Z,89.8
2018-10-03T11:15:02.831Z,94.6
2018-10-03T11:20:05.807Z,90.9
2018-10-03T11:25:15.808Z,96.5
2018-10-03T11:30:05.672Z,45.1
2018-10-03T11:35:16.165Z,97.5
2018-10-03T11:40:08.427Z,94.3
2018-10-03T11:45:02.682Z,94.2
2018-10-03T11:50:08.094Z,86.7
2018-10-03T11:55:10.933Z,83.2
2018-10-03T12:00:05.868Z,78.4
2018-10-03T12:05:07.792Z,81.3
2018-10-03T12:20:08.191Z,96.3
2018-10-03T12:25:03.627Z,96.2
2018-10-03T12:30:18.214Z,93.7
2018-10-03T12:35:08.428Z,89.6
2018-10-03T12:40:08.262Z,85.3
2018-10-03T12:45:05.323Z,79.9
2018-10-03T12:50:02.837Z,80
2018-10-03T12:55:05.630Z,71.9
2018-10-03T13:00:05.536Z,70.7
2018-10-03T13:05:08.429Z,66.7
2018-10-03T13:10:03.328Z,66.7
2018-10-03T13:15:05.236Z,71.4
2018-10-03T13:20:02.695Z,71.3
2018-10-03T13:25:30.976Z,66.2
2018-10-03T13:30:10.942Z,65.6
2018-10-03T13:35:15.342Z,69.2
2018-10-03T13:40:13.415Z,69.9
2018-10-03T13:45:15.263Z,64.5
2018-10-03T13:50:05.229Z,64.1
2018-10-03T13:55:03.075Z,63.6
2018-10-03T14:00:08.535Z,61.2
2018-10-03T14:05:07.931Z,58.5
2018-10-03T14:10:18.045Z,59.2
2018-10-03T14:15:05.771Z,57.9
2018-10-03T14:20:03.305Z,57.8
2018-10-03T14:25:03.005Z,57.3
2018-10-03T14:30:03.403Z,58.4
2018-10-03T14:35:02.753Z,60.3
2018-10-03T14:40:07.679Z,62.6
2018-10-03T14:45:05.483Z,62.6
2018-10-03T14:50:07.898Z,63.7
2018-10-03T14:55:20.429Z,62.9
2018-10-03T15:05:03.279Z,63.4
2018-10-03T15:10:03.083Z,64
2018-10-03T15:15:05.982Z,67
2018-10-03T15:20:11.175Z,66.4
2018-10-03T15:25:08.202Z,65.7
2018-10-03T15:30:03.668Z,65.7
2018-10-03T15:35:36.191Z,68.3
2018-10-03T15:40:08.072Z,69.3
2018-10-03T15:45:15.385Z,70.3
2018-10-03T15:50:08.060Z,70.4
2018-10-03T15:55:06.170Z,70.7
2018-10-03T16:00:08.701Z,70.3
2018-10-03T16:05:02.952Z,70.3
2018-10-03T16:10:02.819Z,71
2018-10-03T16:15:03.241Z,72
2018-10-03T16:20:02.806Z,74
2018-10-03T16:25:08.188Z,77.1
2018-10-03T16:30:05.363Z,78.9
2018-10-03T16:35:05.882Z,80.7
2018-10-03T16:40:02.746Z,80.6
2018-10-03T16:45:08.212Z,83.5
2018-10-03T16:50:07.627Z,85.6
2018-10-03T16:55:15.618Z,87.1
2018-10-03T17:00:02.921Z,87.1
2018-10-03T17:05:03.351Z,87.2
2018-10-03T17:10:03.206Z,87.5
2018-10-03T17:15:21.366Z,92.8
2018-10-03T17:20:07.930Z,88.4
2018-10-03T17:25:20.980Z,87.7
2018-10-03T17:30:10.911Z,87.9
2018-10-03T17:40:13.706Z,89.4
2018-10-03T17:45:05.534Z,90.5
2018-10-03T17:50:05.421Z,91.3
2018-10-03T17:55:10.836Z,92.1
2018-10-03T18:00:08.266Z,92.5
2018-10-03T18:05:20.280Z,92.9
2018-10-03T18:10:05.650Z,93
2018-10-03T18:15:28.777Z,92.8
2018-10-03T18:20:10.837Z,93
2018-10-03T18:25:02.570Z,93
2018-10-03T18:30:10.536Z,93.2
2018-10-03T18:35:15.961Z,93.7
2018-10-03T18:40:07.869Z,93.9
2018-10-03T18:45:03.411Z,93.9
2018-10-03T18:50:05.362Z,94.8
2018-10-03T18:55:26.345Z,95.4
2018-10-03T19:00:07.772Z,96
2018-10-03T19:05:15.662Z,96.4
2018-10-03T19:10:08.607Z,97.3
2018-10-03T19:15:08.412Z,97.8
2018-10-03T19:20:08.177Z,98
2018-10-03T19:25:21.172Z,98.4
2018-10-03T19:35:21.080Z,99.8
2018-10-03T19:40:20.615Z,99.9
2018-10-03T19:45:05.213Z,99.9
2018-10-03T19:50:05.266Z,99.9
2018-10-03T19:55:10.608Z,99.9
2018-10-03T20:00:33.371Z,99.9
2018-10-03T20:05:22.957Z,99.9
2018-10-03T20:10:07.854Z,99.9
2018-10-03T20:15:03.135Z,99.9
2018-10-03T20:20:11.194Z,99.9
2018-10-03T20:25:15.502Z,99.9
2018-10-03T20:30:12.961Z,99.9
2018-10-03T20:35:08.564Z,99.9
2018-10-03T20:40:10.929Z,99.9
2018-10-03T20:45:05.254Z,99.9
2018-10-03T20:50:20.610Z,99.9
2018-10-03T20:55:13.545Z,99.9
2018-10-03T21:00:25.949Z,99.9
2018-10-03T21:05:05.852Z,99.9
2018-10-03T21:10:02.664Z,99.9
2018-10-03T21:15:08.163Z,99.9
2018-10-03T21:20:21.274Z,99.9
2018-10-03T21:25:03.216Z,99.9
2018-10-03T21:30:02.570Z,99.9
2018-10-03T21:35:10.625Z,99.9
2018-10-03T21:40:03.434Z,99.9
2018-10-03T21:45:07.836Z,99.9
2018-10-03T21:50:05.676Z,99.9
2018-10-03T21:55:03.493Z,99.9
2018-10-03T22:00:20.481Z,99.9
2018-10-03T22:05:05.706Z,99.9
2018-10-03T22:10:08.631Z,99.9
2018-10-03T22:15:13.031Z,99.9
2018-10-03T22:20:08.498Z,99.9
2018-10-03T22:25:33.126Z,99.9
2018-10-03T22:30:03.528Z,99.9
2018-10-03T22:35:02.836Z,99.9
2018-10-03T22:40:02.691Z,99.9
2018-10-03T22:45:30.817Z,99.9
2018-10-03T22:50:03.125Z,99.9
2018-10-03T22:55:06.019Z,99.9
2018-10-03T23:00:13.555Z,99.3
2018-10-03T23:05:07.792Z,99.9
2018-10-03T23:10:02.660Z,99.9
2018-10-03T23:15:02.981Z,93.5
2018-10-03T23:20:11.010Z,99.9
2018-10-03T23:25:07.741Z,99.9
2018-10-03T23:30:31.033Z,99.9
2018-10-03T23:35:10.946Z,99.9
2018-10-03T23:40:02.801Z,99.9
2018-10-03T23:45:03.190Z,99.9
2018-10-03T23:50:38.981Z,99.9
2018-10-03T23:55:03.283Z,99.9
